Time;durP1;ratioP1;P1;durP2;ratioP2;P2;SDS_P1;SDS_P2;PMS_P1;PMS_P2;Temp;Humidity;BMP_temperature;BMP_pressure;BME280_temperature;BME280_humidity;BME280_pressure;Samples;Min_cycle;Max_cycle;Signal;HPM_P1;HPM_P2
2022/08/07 09:58:54;;;;;;;;;;;;;;;;;;7424961;19;19921;-54
2022/08/07 10:01:22;;;;;;;;;;;;;;;;;;7426756;19;19934;-49
2022/08/07 10:03:51;;;;;;;;;;;;;;;;;;7426649;19;19915;-52
2022/08/07 10:06:19;;;;;;;;;;;;;;;;;;7426649;19;20026;-57
2022/08/07 10:10:42;;;;;;;;;;;;;;;;;;7400312;19;1369;-54
2022/08/07 10:13:10;;;;;;;;;;;;;;;;;;7339913;19;13429;-51
2022/08/07 10:15:38;;;;;;;;;;;;;;;;;;7400336;19;843;-54
2022/08/07 10:18:07;;;;;;;;;;;;;;;;;;7402120;19;1645;-51
2022/08/07 10:20:35;;;;;;;;;;;;;;;;;;7400823;19;781;-49
2022/08/07 10:23:03;;;;;;;;;;;;;;;;;;7400360;19;869;-55
2022/08/07 10:25:31;;;;;;;;;;;;;;;;;;7400440;19;831;-50
2022/08/07 10:27:59;;;;;;;;;;;;;;;;;;7403785;19;1881;-50
2022/08/07 10:30:28;;;;;;;;;;;;;;;;;;7397462;19;1857;-50
2022/08/07 10:32:56;;;;;;;;;;;;;;;;;;7400039;19;799;-53
2022/08/07 10:35:25;;;;;;;;;;;;;;;;;;7402425;19;1871;-48
2022/08/07 10:37:53;;;;;;;;;;;;;;;;;;7399473;19;1354;-53
2022/08/07 10:40:22;;;;;;;;;;;;;;;;;;7399661;19;776;-49
2022/08/07 10:42:50;;;;;;;;;;;;;;;;;;7400072;19;857;-53
2022/08/07 10:45:18;;;;;;;;;;;;;;;;;;7399997;19;840;-53
2022/08/07 10:47:46;;;;;;;;;;;;;;;;;;7398962;19;1329;-52
2022/08/07 10:50:14;;;;;;;;;;;;;;;;;;7397659;19;1854;-54
2022/08/07 10:52:42;;;;;;;;;;;;;;;;;;7403636;19;1851;-51
2022/08/07 10:55:10;;;;;;;;;;;;;;;;;;7400081;19;776;-56
2022/08/07 10:57:38;;;;;;;;;;;;;;;;;;7399407;19;1333;-51
2022/08/07 11:00:07;;;;;;;;;;;;;;;;;;7399219;19;826;-53
2022/08/07 11:02:35;;;;;;;;;;;;;;;;;;7399932;19;861;-52
2022/08/07 11:05:04;;;;;;;;;;;;;;;;;;7399664;19;859;-53
2022/08/07 11:07:32;;;;;;;;;;;;;;;;;;7399392;19;1262;-55
2022/08/07 11:10:00;;;;;;;;;;;;;;;;;;7402025;19;1928;-55
2022/08/07 11:12:29;;;;;;;;;;;;;;;;;;7399866;19;860;-51
2022/08/07 11:14:57;;;;;;;;;;;;;;;;;;7399648;19;899;-52
2022/08/07 11:17:25;;;;;;;;;;;;;;;;;;7399593;19;849;-52
2022/08/07 11:19:54;;;;;;;;;;;;;;;;;;7396235;19;846;-54
2022/08/07 11:22:22;;;;;;;;;;;;;;;;;;7369125;19;787;-46
2022/08/07 11:24:50;;;;;;;;;;;;;;;;;;7372277;19;1917;-50
2022/08/07 11:27:18;;;;;;;;;;;;;;;;;;7370423;19;861;-49
2022/08/07 11:29:46;;;;;;;;;;;;;;;;;;7367176;19;1849;-53
2022/08/07 11:32:14;;;;;;;;;;;;;;;;;;7371368;19;1832;-52
2022/08/07 11:34:42;;;;;;;;;;;;;;;;;;7373963;19;1883;-52
2022/08/07 11:37:10;;;;;;;;;;;;;;;;;;7370178;19;890;-51
2022/08/07 11:39:38;;;;;;;;;;;;;;;;;;7367387;19;1294;-50
2022/08/07 11:42:07;;;;;;;;;;;;;;;;;;7372441;19;1888;-53
2022/08/07 11:44:35;;;;;;;;;;;;;;;;;;7369528;19;807;-52
2022/08/07 11:47:03;;;;;;;;;;;;;;;;;;7369740;19;806;-50
2022/08/07 11:49:31;;;;;;;;;;;;;;;;;;7366114;19;2234;-54
2022/08/07 11:51:59;;;;;;;;;;;;;;;;;;7369835;19;826;-54
2022/08/07 11:54:28;;;;;;;;;;;;;;;;;;7369842;19;818;-55
2022/08/07 11:56:56;;;;;;;;;;;;;;;;;;7369843;19;766;-54
2022/08/07 11:59:24;;;;;;;;;;;;;;;;;;7371423;19;1851;-51
2022/08/07 12:01:52;;;;;;;;;;;;;;;;;;7370049;19;824;-49
2022/08/07 12:04:20;;;;;;;;;;;;;;;;;;7369883;19;853;-49
2022/08/07 12:06:49;;;;;;;;;;;;;;;;;;7372700;19;1939;-50
2022/08/07 12:09:17;;;;;;;;;;;;;;;;;;7365952;19;1857;-49
2022/08/07 12:11:45;;;;;;;;;;;;;;;;;;7369897;19;881;-47
2022/08/07 12:14:13;;;;;;;;;;;;;;;;;;7370264;19;1914;-51
2022/08/07 12:16:41;;;;;;;;;;;;;;;;;;7369629;19;865;-46
2022/08/07 12:19:11;;;;;;;;;;;;;;;;;;7366466;19;1326;-50
2022/08/07 12:21:39;;;;;;;;;;;;;;;;;;7369651;19;848;-49
2022/08/07 12:24:08;;;;;;;;;;;;;;;;;;7369104;19;827;-51
2022/08/07 12:26:36;;;;;;;;;;;;;;;;;;7369054;19;825;-56
2022/08/07 12:29:04;;;;;;;;;;;;;;;;;;7366671;19;1849;-52
2022/08/07 12:31:32;;;;;;;;;;;;;;;;;;7370991;19;1851;-54
2022/08/07 12:34:01;;;;;;;;;;;;;;;;;;7367524;19;921;-54
2022/08/07 12:36:29;;;;;;;;;;;;;;;;;;7369023;19;852;-50
2022/08/07 12:38:58;;;;;;;;;;;;;;;;;;7365729;19;1298;-56
2022/08/07 12:41:26;;;;;;;;;;;;;;;;;;7368384;19;856;-49
2022/08/07 12:43:54;;;;;;;;;;;;;;;;;;7368631;19;988;-53
2022/08/07 12:46:22;;;;;;;;;;;;;;;;;;7368450;19;790;-53
2022/08/07 12:48:50;;;;;;;;;;;;;;;;;;7369187;19;1845;-48
2022/08/07 12:51:18;;;;;;;;;;;;;;;;;;7365950;19;1835;-53
2022/08/07 12:53:47;;;;;;;;;;;;;;;;;;7368154;19;855;-50
2022/08/07 12:56:15;;;;;;;;;;;;;;;;;;7368295;19;810;-54
2022/08/07 12:58:43;;;;;;;;;;;;;;;;;;7365852;19;1362;-56
2022/08/07 13:01:11;;;;;;;;;;;;;;;;;;7368404;19;825;-51
2022/08/07 13:03:39;;;;;;;;;;;;;;;;;;7368720;19;1641;-48
2022/08/07 13:06:08;;;;;;;;;;;;;;;;;;7368037;19;755;-55
2022/08/07 13:08:37;;;;;;;;;;;;;;;;;;7364897;19;1342;-52
2022/08/07 13:11:05;;;;;;;;;;;;;;;;;;7364847;19;2327;-54
2022/08/07 13:13:33;;;;;;;;;;;;;;;;;;7367461;19;844;-51
2022/08/07 13:16:01;;;;;;;;;;;;;;;;;;7367728;19;810;-54
2022/08/07 13:18:29;;;;;;;;;;;;;;;;;;7365284;19;1267;-54
2022/08/07 13:20:57;;;;;;;;;;;;;;;;;;7369024;19;1901;-51
2022/08/07 13:23:26;;;;;;;;;;;;;;;;;;7367663;19;1966;-52
2022/08/07 13:25:54;;;;;;;;;;;;;;;;;;7367220;19;860;-55
2022/08/07 13:28:22;;;;;;;;;;;;;;;;;;7365389;19;1334;-53
2022/08/07 13:30:50;;;;;;;;;;;;;;;;;;7366068;19;1842;-52
2022/08/07 13:33:18;;;;;;;;;;;;;;;;;;7368505;19;818;-55
2022/08/07 13:35:46;;;;;;;;;;;;;;;;;;7368320;19;827;-54
2022/08/07 13:38:14;;;;;;;;;;;;;;;;;;7369760;19;1876;-51
2022/08/07 13:40:42;;;;;;;;;;;;;;;;;;7367791;19;836;-53
2022/08/07 13:43:10;;;;;;;;;;;;;;;;;;7367057;19;767;-54
2022/08/07 13:45:39;;;;;;;;;;;;;;;;;;7368056;19;893;-47
2022/08/07 13:48:07;;;;;;;;;;;;;;;;;;7366112;19;1279;-54
2022/08/07 13:50:35;;;;;;;;;;;;;;;;;;7365390;19;1849;-52
2022/08/07 13:53:03;;;;;;;;;;;;;;;;;;7366235;19;734;-55
2022/08/07 13:55:31;;;;;;;;;;;;;;;;;;7371600;19;1816;-54
2022/08/07 13:58:59;;;;;;;;;;;;;;;;;;7366329;19;1269;-48
2022/08/07 14:00:47;;;;;;;;;;;;;;;;;;7367634;19;2032;-56
2022/08/07 14:03:15;;;;;;;;;;;;;;;;;;7366538;19;862;-57
2022/08/07 14:05:45;;;;;;;;;;;;;;;;;;7367043;19;805;-48
2022/08/07 14:08:13;;;;;;;;;;;;;;;;;;7364610;19;1330;-44
2022/08/07 14:10:41;;;;;;;;;;;;;;;;;;7365786;19;1880;-52
2022/08/07 14:13:09;;;;;;;;;;;;;;;;;;7365819;19;872;-52
2022/08/07 14:15:37;;;;;;;;;;;;;;;;;;7366639;19;896;-51
2022/08/07 14:18:05;;;;;;;;;;;;;;;;;;7365670;19;1255;-51
2022/08/07 14:20:33;;;;;;;;;;;;;;;;;;7366134;19;889;-54
2022/08/07 14:23:01;;;;;;;;;;;;;;;;;;7366378;19;814;-52
2022/08/07 14:25:29;;;;;;;;;;;;;;;;;;7368606;19;1853;-55
2022/08/07 14:27:58;;;;;;;;;;;;;;;;;;7366368;19;1908;-53
2022/08/07 14:30:26;;;;;;;;;;;;;;;;;;7366920;19;1892;-53
2022/08/07 14:32:54;;;;;;;;;;;;;;;;;;7366368;19;985;-51
2022/08/07 14:35:22;;;;;;;;;;;;;;;;;;7368793;19;1151;-53
2022/08/07 14:37:52;;;;;;;;;;;;;;;;;;7364753;19;1235;-54
2022/08/07 14:40:20;;;;;;;;;;;;;;;;;;7368062;19;2102;-51
2022/08/07 14:42:48;;;;;;;;;;;;;;;;;;7365574;19;794;-53
2022/08/07 14:45:16;;;;;;;;;;;;;;;;;;7365504;19;839;-53
2022/08/07 14:47:44;;;;;;;;;;;;;;;;;;7364767;19;1275;-54
2022/08/07 14:50:17;;;;;;;;;;;;;;;;;;7363401;19;1841;-52
2022/08/07 14:52:46;;;;;;;;;;;;;;;;;;7364403;19;776;-50
2022/08/07 14:55:14;;;;;;;;;;;;;;;;;;7366224;19;1907;-55
2022/08/07 14:57:42;;;;;;;;;;;;;;;;;;7371672;19;1368;-52
2022/08/07 15:00:10;;;;;;;;;;;;;;;;;;7370785;19;876;-50
2022/08/07 15:02:39;;;;;;;;;;;;;;;;;;7371346;19;806;-48
2022/08/07 15:05:07;;;;;;;;;;;;;;;;;;7370623;19;843;-54
2022/08/07 15:07:35;;;;;;;;;;;;;;;;;;7370655;19;1330;-52
2022/08/07 15:10:03;;;;;;;;;;;;;;;;;;7369767;19;1846;-52
2022/08/07 15:12:31;;;;;;;;;;;;;;;;;;7373266;19;1876;-55
2022/08/07 15:14:59;;;;;;;;;;;;;;;;;;7370283;19;787;-56
2022/08/07 15:17:31;;;;;;;;;;;;;;;;;;7370118;19;1290;-51
2022/08/07 15:19:59;;;;;;;;;;;;;;;;;;7369734;19;756;-51
2022/08/07 15:22:27;;;;;;;;;;;;;;;;;;7370865;19;796;-51
2022/08/07 15:24:55;;;;;;;;;;;;;;;;;;7371000;19;875;-55
2022/08/07 15:27:23;;;;;;;;;;;;;;;;;;7371076;19;2186;-49
2022/08/07 15:29:51;;;;;;;;;;;;;;;;;;7371304;19;1900;-51
2022/08/07 15:32:20;;;;;;;;;;;;;;;;;;7369964;19;834;-54
2022/08/07 15:34:49;;;;;;;;;;;;;;;;;;7370867;19;810;-54
2022/08/07 15:37:17;;;;;;;;;;;;;;;;;;7370337;19;1118;-51
2022/08/07 15:39:46;;;;;;;;;;;;;;;;;;7367468;19;1275;-48
2022/08/07 15:42:14;;;;;;;;;;;;;;;;;;7370723;19;874;-47
2022/08/07 15:44:42;;;;;;;;;;;;;;;;;;7372479;19;1915;-49
2022/08/07 15:47:10;;;;;;;;;;;;;;;;;;7370199;19;750;-55
2022/08/07 15:49:38;;;;;;;;;;;;;;;;;;7366736;19;1334;-56
2022/08/07 15:52:06;;;;;;;;;;;;;;;;;;7367720;19;1902;-49
2022/08/07 15:54:34;;;;;;;;;;;;;;;;;;7369620;19;833;-50
2022/08/07 15:57:02;;;;;;;;;;;;;;;;;;7370703;19;814;-47
2022/08/07 15:59:30;;;;;;;;;;;;;;;;;;7366890;19;1334;-47
2022/08/07 16:01:59;;;;;;;;;;;;;;;;;;7374221;19;1866;-47
2022/08/07 16:04:27;;;;;;;;;;;;;;;;;;7369857;19;862;-49
2022/08/07 16:06:55;;;;;;;;;;;;;;;;;;7369295;19;823;-50
2022/08/07 16:09:23;;;;;;;;;;;;;;;;;;7366500;19;1386;-54
2022/08/07 16:11:51;;;;;;;;;;;;;;;;;;7367445;19;1838;-46
2022/08/07 16:14:19;;;;;;;;;;;;;;;;;;7368620;19;1311;-47
2022/08/07 16:16:47;;;;;;;;;;;;;;;;;;7370465;19;1892;-47
2022/08/07 16:19:15;;;;;;;;;;;;;;;;;;7366252;19;1306;-47
2022/08/07 16:21:44;;;;;;;;;;;;;;;;;;7369653;19;844;-45
2022/08/07 16:24:12;;;;;;;;;;;;;;;;;;7369781;19;880;-47
2022/08/07 16:26:40;;;;;;;;;;;;;;;;;;7369242;19;875;-49
2022/08/07 16:29:08;;;;;;;;;;;;;;;;;;7367265;19;1243;-50
2022/08/07 16:31:37;;;;;;;;;;;;;;;;;;7367542;19;1849;-49
2022/08/07 16:34:05;;;;;;;;;;;;;;;;;;7371581;19;1665;-49
2022/08/07 16:36:33;;;;;;;;;;;;;;;;;;7370293;19;841;-49
2022/08/07 16:39:01;;;;;;;;;;;;;;;;;;7367000;19;1333;-50
2022/08/07 16:41:29;;;;;;;;;;;;;;;;;;7369769;19;821;-45
2022/08/07 16:43:57;;;;;;;;;;;;;;;;;;7368297;19;833;-46
2022/08/07 16:46:26;;;;;;;;;;;;;;;;;;7368601;19;797;-44
2022/08/07 16:48:54;;;;;;;;;;;;;;;;;;7369486;19;1853;-45
2022/08/07 16:51:22;;;;;;;;;;;;;;;;;;7366645;19;1822;-44
2022/08/07 16:53:50;;;;;;;;;;;;;;;;;;7368105;19;799;-48
2022/08/07 16:56:18;;;;;;;;;;;;;;;;;;7368171;19;739;-45
2022/08/07 16:58:46;;;;;;;;;;;;;;;;;;7366414;19;1321;-45
2022/08/07 17:01:14;;;;;;;;;;;;;;;;;;7368491;19;1843;-47
2022/08/07 17:03:43;;;;;;;;;;;;;;;;;;7368760;19;866;-48
2022/08/07 17:06:11;;;;;;;;;;;;;;;;;;7367646;19;808;-46
2022/08/07 17:08:39;;;;;;;;;;;;;;;;;;7366155;19;1340;-48
2022/08/07 17:11:07;;;;;;;;;;;;;;;;;;7367389;19;1855;-45
2022/08/07 17:13:35;;;;;;;;;;;;;;;;;;7369683;19;834;-47
2022/08/07 17:16:03;;;;;;;;;;;;;;;;;;7371059;19;811;-45
2022/08/07 17:18:31;;;;;;;;;;;;;;;;;;7369369;19;1755;-46
2022/08/07 17:20:59;;;;;;;;;;;;;;;;;;7370045;19;898;-45
2022/08/07 17:23:28;;;;;;;;;;;;;;;;;;7370338;19;807;-46
2022/08/07 17:25:56;;;;;;;;;;;;;;;;;;7369852;19;775;-51
2022/08/07 17:28:25;;;;;;;;;;;;;;;;;;7365537;19;1380;-48
2022/08/07 17:30:54;;;;;;;;;;;;;;;;;;7367164;19;1838;-51
2022/08/07 17:33:22;;;;;;;;;;;;;;;;;;7367744;19;869;-46
2022/08/07 17:35:50;;;;;;;;;;;;;;;;;;7371128;19;1847;-46
2022/08/07 17:38:18;;;;;;;;;;;;;;;;;;7367666;19;1890;-48
2022/08/07 17:40:46;;;;;;;;;;;;;;;;;;7367342;19;839;-50
2022/08/07 17:43:14;;;;;;;;;;;;;;;;;;7366813;19;882;-48
2022/08/07 17:45:42;;;;;;;;;;;;;;;;;;7367108;19;991;-47
2022/08/07 17:48:10;;;;;;;;;;;;;;;;;;7366015;19;1279;-48
2022/08/07 17:50:38;;;;;;;;;;;;;;;;;;7367014;19;1901;-50
2022/08/07 17:53:07;;;;;;;;;;;;;;;;;;7366828;19;815;-50
2022/08/07 17:55:35;;;;;;;;;;;;;;;;;;7366620;19;863;-48
2022/08/07 17:58:03;;;;;;;;;;;;;;;;;;7366100;19;1271;-45
2022/08/07 18:00:32;;;;;;;;;;;;;;;;;;7363570;19;976;-46
2022/08/07 18:03:00;;;;;;;;;;;;;;;;;;7365182;19;806;-46
2022/08/07 18:05:28;;;;;;;;;;;;;;;;;;7343564;19;12605;-46
2022/08/07 18:07:56;;;;;;;;;;;;;;;;;;7367330;19;1948;-47
2022/08/07 18:10:24;;;;;;;;;;;;;;;;;;7366096;19;773;-46
2022/08/07 18:12:52;;;;;;;;;;;;;;;;;;7364505;19;1846;-48
2022/08/07 18:15:21;;;;;;;;;;;;;;;;;;7369696;19;888;-48
2022/08/07 18:17:50;;;;;;;;;;;;;;;;;;7367461;19;1338;-48
2022/08/07 18:20:18;;;;;;;;;;;;;;;;;;7368258;19;1772;-49
2022/08/07 18:22:46;;;;;;;;;;;;;;;;;;7369782;19;1725;-49
2022/08/07 18:25:14;;;;;;;;;;;;;;;;;;7369480;19;1861;-52
2022/08/07 18:27:43;;;;;;;;;;;;;;;;;;7365431;19;1345;-45
2022/08/07 18:30:11;;;;;;;;;;;;;;;;;;7365141;19;941;-45
2022/08/07 18:32:40;;;;;;;;;;;;;;;;;;7370377;19;1876;-47
2022/08/07 18:35:08;;;;;;;;;;;;;;;;;;7374717;19;875;-46
2022/08/07 18:37:36;;;;;;;;;;;;;;;;;;7371652;19;1254;-50
2022/08/07 18:40:04;;;;;;;;;;;;;;;;;;7371831;19;1852;-49
2022/08/07 18:42:32;;;;;;;;;;;;;;;;;;7376547;19;1961;-49
2022/08/07 18:45:00;;;;;;;;;;;;;;;;;;7371577;19;874;-49
2022/08/07 18:47:28;;;;;;;;;;;;;;;;;;7324403;19;3888;-49
2022/08/07 18:49:57;;;;;;;;;;;;;;;;;;7371498;19;792;-50
2022/08/07 18:52:25;;;;;;;;;;;;;;;;;;7369962;19;1842;-48
2022/08/07 18:54:53;;;;;;;;;;;;;;;;;;7370860;19;1880;-49
2022/08/07 18:57:21;;;;;;;;;;;;;;;;;;7377017;19;867;-45
2022/08/07 18:59:50;;;;;;;;;;;;;;;;;;7366600;19;1307;-45
2022/08/07 19:02:18;;;;;;;;;;;;;;;;;;7371154;19;789;-52
2022/08/07 19:04:46;;;;;;;;;;;;;;;;;;7371579;19;751;-45
2022/08/07 19:07:14;;;;;;;;;;;;;;;;;;7371166;19;831;-48
2022/08/07 19:09:42;;;;;;;;;;;;;;;;;;7368971;19;1456;-46
2022/08/07 19:12:10;;;;;;;;;;;;;;;;;;7372728;19;1849;-48
2022/08/07 19:14:38;;;;;;;;;;;;;;;;;;7370564;19;766;-48
2022/08/07 19:17:08;;;;;;;;;;;;;;;;;;7370285;19;868;-45
2022/08/07 19:19:36;;;;;;;;;;;;;;;;;;7367732;19;1198;-48
2022/08/07 19:22:04;;;;;;;;;;;;;;;;;;7370706;19;799;-47
2022/08/07 19:24:32;;;;;;;;;;;;;;;;;;7371402;19;779;-48
2022/08/07 19:27:01;;;;;;;;;;;;;;;;;;7370890;19;890;-45
2022/08/07 19:29:29;;;;;;;;;;;;;;;;;;7372090;19;2097;-46
2022/08/07 19:31:57;;;;;;;;;;;;;;;;;;7370809;19;1886;-46
2022/08/07 19:34:25;;;;;;;;;;;;;;;;;;7371124;19;815;-46
2022/08/07 19:36:53;;;;;;;;;;;;;;;;;;7371339;19;838;-48
2022/08/07 19:39:21;;;;;;;;;;;;;;;;;;7367681;19;1337;-47
2022/08/07 19:41:49;;;;;;;;;;;;;;;;;;7369276;19;878;-46
2022/08/07 19:44:18;;;;;;;;;;;;;;;;;;7370714;19;1855;-47
2022/08/07 19:46:48;;;;;;;;;;;;;;;;;;7372134;19;1880;-51
2022/08/07 19:49:16;;;;;;;;;;;;;;;;;;7370890;19;1875;-45
2022/08/07 19:51:44;;;;;;;;;;;;;;;;;;7372457;19;1861;-49
2022/08/07 19:54:12;;;;;;;;;;;;;;;;;;7369757;19;807;-48
2022/08/07 19:56:42;;;;;;;;;;;;;;;;;;7369863;19;879;-49
2022/08/07 19:59:10;;;;;;;;;;;;;;;;;;7366750;19;1283;-49
2022/08/07 20:01:38;;;;;;;;;;;;;;;;;;7373217;19;1809;-49
2022/08/07 20:04:06;;;;;;;;;;;;;;;;;;7369635;19;870;-46
2022/08/07 20:06:35;;;;;;;;;;;;;;;;;;7371375;19;946;-48
2022/08/07 20:09:05;;;;;;;;;;;;;;;;;;7367264;19;1310;-52
2022/08/07 20:11:33;;;;;;;;;;;;;;;;;;7368734;19;1858;-51
2022/08/07 20:14:01;;;;;;;;;;;;;;;;;;7364679;19;1225;-49
2022/08/07 20:16:30;;;;;;;;;;;;;;;;;;7370635;19;1692;-50
2022/08/07 20:18:58;;;;;;;;;;;;;;;;;;7366903;19;1351;-46
2022/08/07 20:21:27;;;;;;;;;;;;;;;;;;7372360;19;1190;-50
2022/08/07 20:23:55;;;;;;;;;;;;;;;;;;7373166;19;875;-46
2022/08/07 20:26:23;;;;;;;;;;;;;;;;;;7368363;19;811;-49
2022/08/07 20:28:52;;;;;;;;;;;;;;;;;;7366690;19;1340;-51
2022/08/07 20:31:20;;;;;;;;;;;;;;;;;;7372783;19;1861;-44
2022/08/07 20:33:48;;;;;;;;;;;;;;;;;;7369307;19;885;-45
2022/08/07 20:36:18;;;;;;;;;;;;;;;;;;7369719;19;821;-47
2022/08/07 20:38:53;;;;;;;;;;;;;;;;;;7366029;19;1301;-50
2022/08/07 20:41:21;;;;;;;;;;;;;;;;;;7368776;19;797;-47
2022/08/07 20:43:49;;;;;;;;;;;;;;;;;;7368934;19;876;-45
2022/08/07 20:46:17;;;;;;;;;;;;;;;;;;7369375;19;2118;-45
2022/08/07 20:48:45;;;;;;;;;;;;;;;;;;7366054;19;1263;-48
2022/08/07 20:51:13;;;;;;;;;;;;;;;;;;7368553;19;806;-45
2022/08/07 20:53:41;;;;;;;;;;;;;;;;;;7364242;19;1838;-48
2022/08/07 20:56:10;;;;;;;;;;;;;;;;;;7369602;19;842;-47
2022/08/07 20:58:39;;;;;;;;;;;;;;;;;;7367763;19;1271;-48
2022/08/07 21:01:07;;;;;;;;;;;;;;;;;;7369556;19;883;-45
2022/08/07 21:03:35;;;;;;;;;;;;;;;;;;7372261;19;1779;-53
2022/08/07 21:06:05;;;;;;;;;;;;;;;;;;7368768;19;814;-53
2022/08/07 21:08:33;;;;;;;;;;;;;;;;;;7367202;19;1282;-49
2022/08/07 21:11:02;;;;;;;;;;;;;;;;;;7368527;19;760;-50
2022/08/07 21:13:30;;;;;;;;;;;;;;;;;;7366060;19;1854;-50
2022/08/07 21:15:58;;;;;;;;;;;;;;;;;;7368616;19;827;-50
2022/08/07 21:18:26;;;;;;;;;;;;;;;;;;7367181;19;1326;-50
2022/08/07 21:20:54;;;;;;;;;;;;;;;;;;7371228;19;1620;-51
2022/08/07 21:23:22;;;;;;;;;;;;;;;;;;7373015;19;1881;-48
2022/08/07 21:25:50;;;;;;;;;;;;;;;;;;7369650;19;831;-49
2022/08/07 21:28:18;;;;;;;;;;;;;;;;;;7367851;19;1280;-52
2022/08/07 21:30:47;;;;;;;;;;;;;;;;;;7369776;19;858;-46
2022/08/07 21:33:15;;;;;;;;;;;;;;;;;;7368190;19;1815;-48
2022/08/07 21:35:43;;;;;;;;;;;;;;;;;;7370175;19;1928;-52
2022/08/07 21:38:11;;;;;;;;;;;;;;;;;;7370954;19;1819;-52
2022/08/07 21:40:39;;;;;;;;;;;;;;;;;;7368303;19;874;-48
2022/08/07 21:43:07;;;;;;;;;;;;;;;;;;7367939;19;819;-45
2022/08/07 21:45:35;;;;;;;;;;;;;;;;;;7366915;19;720;-44
2022/08/07 21:48:03;;;;;;;;;;;;;;;;;;7366812;19;1337;-47
2022/08/07 21:50:32;;;;;;;;;;;;;;;;;;7366711;19;881;-48
2022/08/07 21:53:00;;;;;;;;;;;;;;;;;;7366788;19;1911;-50
2022/08/07 21:55:28;;;;;;;;;;;;;;;;;;7369060;19;1846;-50
2022/08/07 21:57:56;;;;;;;;;;;;;;;;;;7366206;19;1281;-52
2022/08/07 22:00:24;;;;;;;;;;;;;;;;;;7367125;19;870;-50
2022/08/07 22:02:52;;;;;;;;;;;;;;;;;;7366920;19;882;-47
2022/08/07 22:05:21;;;;;;;;;;;;;;;;;;7366155;19;846;-47
2022/08/07 22:07:49;;;;;;;;;;;;;;;;;;7366459;19;1252;-48
2022/08/07 22:10:18;;;;;;;;;;;;;;;;;;7366994;19;1924;-48
2022/08/07 22:12:46;;;;;;;;;;;;;;;;;;7366868;19;1842;-44
2022/08/07 22:15:15;;;;;;;;;;;;;;;;;;7364633;19;819;-47
2022/08/07 22:17:43;;;;;;;;;;;;;;;;;;7365499;19;818;-46
2022/08/07 22:20:11;;;;;;;;;;;;;;;;;;7363796;19;779;-45
2022/08/07 22:22:39;;;;;;;;;;;;;;;;;;7364344;19;834;-45
2022/08/07 22:25:09;;;;;;;;;;;;;;;;;;7363858;19;952;-53
2022/08/07 22:27:37;;;;;;;;;;;;;;;;;;7369408;19;1924;-49
2022/08/07 22:30:06;;;;;;;;;;;;;;;;;;7363436;19;794;-50
2022/08/07 22:32:34;;;;;;;;;;;;;;;;;;7361483;19;2235;-46
2022/08/07 22:35:03;;;;;;;;;;;;;;;;;;7363929;19;715;-50
2022/08/07 22:37:31;;;;;;;;;;;;;;;;;;7364536;19;827;-46
2022/08/07 22:39:59;;;;;;;;;;;;;;;;;;7362338;19;812;-48
2022/08/07 22:42:27;;;;;;;;;;;;;;;;;;7362394;19;1800;-44
2022/08/07 22:44:55;;;;;;;;;;;;;;;;;;7363892;19;840;-45
2022/08/07 22:47:24;;;;;;;;;;;;;;;;;;7364761;19;819;-45
2022/08/07 22:49:52;;;;;;;;;;;;;;;;;;7363405;19;874;-44
2022/08/07 22:52:20;;;;;;;;;;;;;;;;;;7361312;19;1861;-47
2022/08/07 22:54:48;;;;;;;;;;;;;;;;;;7363437;19;871;-45
2022/08/07 22:57:16;;;;;;;;;;;;;;;;;;7366537;19;1900;-45
2022/08/07 22:59:44;;;;;;;;;;;;;;;;;;7363240;19;903;-45
2022/08/07 23:02:13;;;;;;;;;;;;;;;;;;7360852;19;1314;-45
2022/08/07 23:04:42;;;;;;;;;;;;;;;;;;7363214;19;862;-48
2022/08/07 23:07:10;;;;;;;;;;;;;;;;;;7363254;19;818;-48
2022/08/07 23:09:38;;;;;;;;;;;;;;;;;;7361734;19;891;-45
2022/08/07 23:12:08;;;;;;;;;;;;;;;;;;7360335;19;1838;-45
2022/08/07 23:14:36;;;;;;;;;;;;;;;;;;7362575;19;796;-45
2022/08/07 23:17:04;;;;;;;;;;;;;;;;;;7364731;19;832;-46
2022/08/07 23:22:13;;;;;;;;;;;;;;;;;;7367109;19;1267;-47
2022/08/07 23:24:41;;;;;;;;;;;;;;;;;;7369601;19;822;-45
2022/08/07 23:27:09;;;;;;;;;;;;;;;;;;7368897;19;807;-45
2022/08/07 23:29:38;;;;;;;;;;;;;;;;;;7370809;19;1740;-45
2022/08/07 23:32:06;;;;;;;;;;;;;;;;;;7366456;19;1286;-44
2022/08/07 23:34:35;;;;;;;;;;;;;;;;;;7369169;19;804;-46
2022/08/07 23:37:03;;;;;;;;;;;;;;;;;;7368814;19;804;-46
2022/08/07 23:39:31;;;;;;;;;;;;;;;;;;7366275;19;769;-45
2022/08/07 23:41:59;;;;;;;;;;;;;;;;;;7366589;19;1348;-46
2022/08/07 23:44:27;;;;;;;;;;;;;;;;;;7368700;19;1749;-45
2022/08/07 23:46:55;;;;;;;;;;;;;;;;;;7372310;19;1908;-46
2022/08/07 23:49:23;;;;;;;;;;;;;;;;;;7367488;19;779;-45
2022/08/07 23:51:51;;;;;;;;;;;;;;;;;;7365917;19;1372;-45
2022/08/07 23:54:20;;;;;;;;;;;;;;;;;;7366291;19;1859;-45
2022/08/07 23:56:48;;;;;;;;;;;;;;;;;;7367507;19;851;-45
2022/08/07 23:59:16;;;;;;;;;;;;;;;;;;7367844;19;784;-46
